sensor_id;sensor_type;location;lat;lon;timestamp;P1;durP1;ratioP1;P2;durP2;ratioP2
66421;SDS011;53228;51.380;0.098;2022-09-23T00:01:20;12.48;;;4.38;;
66421;SDS011;53228;51.380;0.098;2022-09-23T00:03:48;6.80;;;4.05;;
66421;SDS011;53228;51.380;0.098;2022-09-23T00:06:17;8.23;;;4.72;;
66421;SDS011;53228;51.380;0.098;2022-09-23T00:08:47;9.40;;;4.45;;
66421;SDS011;53228;51.380;0.098;2022-09-23T00:11:23;5.93;;;4.25;;
66421;SDS011;53228;51.380;0.098;2022-09-23T00:13:53;6.95;;;4.40;;
66421;SDS011;53228;51.380;0.098;2022-09-23T00:18:51;7.50;;;4.05;;
66421;SDS011;53228;51.380;0.098;2022-09-23T00:21:19;15.95;;;5.45;;
66421;SDS011;53228;51.380;0.098;2022-09-23T00:23:47;8.30;;;4.53;;
66421;SDS011;53228;51.380;0.098;2022-09-23T00:26:16;7.07;;;4.97;;
66421;SDS011;53228;51.380;0.098;2022-09-23T00:28:46;6.97;;;4.32;;
66421;SDS011;53228;51.380;0.098;2022-09-23T00:31:24;12.00;;;5.13;;
66421;SDS011;53228;51.380;0.098;2022-09-23T00:33:57;7.78;;;4.82;;
66421;SDS011;53228;51.380;0.098;2022-09-23T00:36:26;9.02;;;5.10;;
66421;SDS011;53228;51.380;0.098;2022-09-23T00:38:55;7.82;;;4.57;;
66421;SDS011;53228;51.380;0.098;2022-09-23T00:41:23;6.45;;;4.72;;
66421;SDS011;53228;51.380;0.098;2022-09-23T00:43:55;7.35;;;4.80;;
66421;SDS011;53228;51.380;0.098;2022-09-23T00:46:32;8.07;;;5.50;;
66421;SDS011;53228;51.380;0.098;2022-09-23T00:49:08;9.18;;;5.35;;
66421;SDS011;53228;51.380;0.098;2022-09-23T00:51:42;10.43;;;5.55;;
66421;SDS011;53228;51.380;0.098;2022-09-23T00:54:16;7.97;;;5.38;;
66421;SDS011;53228;51.380;0.098;2022-09-23T00:56:44;7.43;;;5.70;;
66421;SDS011;53228;51.380;0.098;2022-09-23T00:59:12;11.57;;;5.82;;
66421;SDS011;53228;51.380;0.098;2022-09-23T01:01:40;7.55;;;5.32;;
66421;SDS011;53228;51.380;0.098;2022-09-23T01:04:09;10.68;;;5.45;;
66421;SDS011;53228;51.380;0.098;2022-09-23T01:06:36;8.23;;;6.18;;
66421;SDS011;53228;51.380;0.098;2022-09-23T01:09:04;8.57;;;5.90;;
66421;SDS011;53228;51.380;0.098;2022-09-23T01:12:19;8.93;;;6.22;;
66421;SDS011;53228;51.380;0.098;2022-09-23T01:14:45;11.75;;;6.50;;
66421;SDS011;53228;51.380;0.098;2022-09-23T01:17:32;11.20;;;6.03;;
66421;SDS011;53228;51.380;0.098;2022-09-23T01:23:27;9.35;;;5.82;;
66421;SDS011;53228;51.380;0.098;2022-09-23T01:32:01;11.20;;;6.40;;
66421;SDS011;53228;51.380;0.098;2022-09-23T01:34:45;9.27;;;6.38;;
66421;SDS011;53228;51.380;0.098;2022-09-23T01:37:19;11.50;;;6.50;;
66421;SDS011;53228;51.380;0.098;2022-09-23T01:39:59;9.45;;;6.35;;
66421;SDS011;53228;51.380;0.098;2022-09-23T01:42:42;11.02;;;6.07;;
66421;SDS011;53228;51.380;0.098;2022-09-23T01:47:58;9.55;;;6.78;;
66421;SDS011;53228;51.380;0.098;2022-09-23T01:50:50;9.05;;;6.32;;
66421;SDS011;53228;51.380;0.098;2022-09-23T01:53:44;10.00;;;5.78;;
66421;SDS011;53228;51.380;0.098;2022-09-23T01:56:16;9.63;;;5.88;;
66421;SDS011;53228;51.380;0.098;2022-09-23T02:01:49;8.77;;;6.25;;
66421;SDS011;53228;51.380;0.098;2022-09-23T02:04:26;10.70;;;5.55;;
66421;SDS011;53228;51.380;0.098;2022-09-23T02:07:11;10.13;;;5.47;;
66421;SDS011;53228;51.380;0.098;2022-09-23T02:09:48;9.82;;;5.80;;
66421;SDS011;53228;51.380;0.098;2022-09-23T02:12:22;9.77;;;5.78;;
66421;SDS011;53228;51.380;0.098;2022-09-23T02:14:57;10.93;;;5.90;;
66421;SDS011;53228;51.380;0.098;2022-09-23T02:17:50;10.63;;;6.18;;
66421;SDS011;53228;51.380;0.098;2022-09-23T02:20:21;10.07;;;6.65;;
66421;SDS011;53228;51.380;0.098;2022-09-23T02:23:01;8.65;;;5.97;;
66421;SDS011;53228;51.380;0.098;2022-09-23T02:25:38;10.52;;;6.00;;
66421;SDS011;53228;51.380;0.098;2022-09-23T02:28:13;11.52;;;5.60;;
66421;SDS011;53228;51.380;0.098;2022-09-23T02:31:48;10.97;;;6.80;;
66421;SDS011;53228;51.380;0.098;2022-09-23T02:37:35;9.70;;;6.78;;
66421;SDS011;53228;51.380;0.098;2022-09-23T02:45:34;7.40;;;5.53;;
66421;SDS011;53228;51.380;0.098;2022-09-23T02:48:05;8.80;;;6.20;;
66421;SDS011;53228;51.380;0.098;2022-09-23T02:50:38;12.50;;;6.20;;
66421;SDS011;53228;51.380;0.098;2022-09-23T02:53:06;9.77;;;5.80;;
66421;SDS011;53228;51.380;0.098;2022-09-23T02:55:33;12.25;;;6.50;;
66421;SDS011;53228;51.380;0.098;2022-09-23T02:58:01;10.15;;;5.68;;
66421;SDS011;53228;51.380;0.098;2022-09-23T03:00:40;9.07;;;5.85;;
66421;SDS011;53228;51.380;0.098;2022-09-23T03:03:28;11.23;;;6.55;;
66421;SDS011;53228;51.380;0.098;2022-09-23T03:06:26;11.07;;;6.20;;
66421;SDS011;53228;51.380;0.098;2022-09-23T03:09:09;10.35;;;6.03;;
66421;SDS011;53228;51.380;0.098;2022-09-23T03:11:46;8.60;;;5.65;;
66421;SDS011;53228;51.380;0.098;2022-09-23T03:14:28;8.88;;;5.43;;
66421;SDS011;53228;51.380;0.098;2022-09-23T03:17:10;14.98;;;5.97;;
66421;SDS011;53228;51.380;0.098;2022-09-23T03:20:02;7.72;;;5.53;;
66421;SDS011;53228;51.380;0.098;2022-09-23T03:22:55;8.60;;;5.75;;
66421;SDS011;53228;51.380;0.098;2022-09-23T03:25:27;9.93;;;5.00;;
66421;SDS011;53228;51.380;0.098;2022-09-23T03:27:58;9.25;;;5.63;;
66421;SDS011;53228;51.380;0.098;2022-09-23T03:30:27;6.90;;;5.72;;
66421;SDS011;53228;51.380;0.098;2022-09-23T03:32:57;7.28;;;5.35;;
66421;SDS011;53228;51.380;0.098;2022-09-23T03:35:26;7.70;;;5.47;;
66421;SDS011;53228;51.380;0.098;2022-09-23T03:38:05;11.00;;;5.82;;
66421;SDS011;53228;51.380;0.098;2022-09-23T03:40:43;7.93;;;5.30;;
66421;SDS011;53228;51.380;0.098;2022-09-23T03:43:13;9.02;;;5.32;;
66421;SDS011;53228;51.380;0.098;2022-09-23T03:45:42;6.35;;;5.07;;
66421;SDS011;53228;51.380;0.098;2022-09-23T03:48:12;14.10;;;5.70;;
66421;SDS011;53228;51.380;0.098;2022-09-23T03:50:41;6.80;;;4.95;;
66421;SDS011;53228;51.380;0.098;2022-09-23T03:53:09;6.20;;;5.35;;
66421;SDS011;53228;51.380;0.098;2022-09-23T03:55:39;8.10;;;5.40;;
66421;SDS011;53228;51.380;0.098;2022-09-23T03:58:07;8.80;;;5.65;;
66421;SDS011;53228;51.380;0.098;2022-09-23T04:00:35;8.60;;;5.15;;
66421;SDS011;53228;51.380;0.098;2022-09-23T04:03:03;8.00;;;5.60;;
66421;SDS011;53228;51.380;0.098;2022-09-23T04:05:37;9.65;;;6.00;;
66421;SDS011;53228;51.380;0.098;2022-09-23T04:08:05;7.85;;;5.63;;
66421;SDS011;53228;51.380;0.098;2022-09-23T04:10:32;7.40;;;5.55;;
66421;SDS011;53228;51.380;0.098;2022-09-23T04:13:00;8.68;;;5.78;;
66421;SDS011;53228;51.380;0.098;2022-09-23T04:15:27;8.30;;;6.13;;
66421;SDS011;53228;51.380;0.098;2022-09-23T04:17:55;7.45;;;5.85;;
66421;SDS011;53228;51.380;0.098;2022-09-23T04:20:23;8.55;;;5.90;;
66421;SDS011;53228;51.380;0.098;2022-09-23T04:22:51;7.07;;;5.47;;
66421;SDS011;53228;51.380;0.098;2022-09-23T04:25:19;9.10;;;5.35;;
66421;SDS011;53228;51.380;0.098;2022-09-23T04:27:47;7.85;;;5.63;;
66421;SDS011;53228;51.380;0.098;2022-09-23T04:30:14;7.85;;;5.05;;
66421;SDS011;53228;51.380;0.098;2022-09-23T04:32:42;9.10;;;6.32;;
66421;SDS011;53228;51.380;0.098;2022-09-23T04:35:10;8.48;;;5.63;;
66421;SDS011;53228;51.380;0.098;2022-09-23T04:37:37;11.25;;;6.55;;
66421;SDS011;53228;51.380;0.098;2022-09-23T04:40:05;8.45;;;5.70;;
66421;SDS011;53228;51.380;0.098;2022-09-23T04:42:34;7.40;;;5.15;;
66421;SDS011;53228;51.380;0.098;2022-09-23T04:45:02;8.07;;;5.53;;
66421;SDS011;53228;51.380;0.098;2022-09-23T04:47:31;9.38;;;5.45;;
66421;SDS011;53228;51.380;0.098;2022-09-23T04:49:59;10.30;;;6.18;;
66421;SDS011;53228;51.380;0.098;2022-09-23T04:52:26;8.45;;;6.03;;
66421;SDS011;53228;51.380;0.098;2022-09-23T04:54:57;10.60;;;6.38;;
66421;SDS011;53228;51.380;0.098;2022-09-23T04:57:24;11.38;;;5.57;;
66421;SDS011;53228;51.380;0.098;2022-09-23T04:59:52;11.68;;;6.35;;
66421;SDS011;53228;51.380;0.098;2022-09-23T05:02:23;9.68;;;6.32;;
66421;SDS011;53228;51.380;0.098;2022-09-23T05:04:51;11.02;;;6.72;;
66421;SDS011;53228;51.380;0.098;2022-09-23T05:07:18;11.82;;;5.80;;
66421;SDS011;53228;51.380;0.098;2022-09-23T05:09:46;9.93;;;6.55;;
66421;SDS011;53228;51.380;0.098;2022-09-23T05:12:14;9.05;;;6.07;;
66421;SDS011;53228;51.380;0.098;2022-09-23T05:14:41;9.02;;;6.72;;
66421;SDS011;53228;51.380;0.098;2022-09-23T05:17:09;8.40;;;6.22;;
66421;SDS011;53228;51.380;0.098;2022-09-23T05:19:37;13.20;;;7.20;;
66421;SDS011;53228;51.380;0.098;2022-09-23T05:22:05;9.75;;;6.80;;
66421;SDS011;53228;51.380;0.098;2022-09-23T05:24:33;11.20;;;6.95;;
66421;SDS011;53228;51.380;0.098;2022-09-23T05:27:01;14.60;;;6.93;;
66421;SDS011;53228;51.380;0.098;2022-09-23T05:29:28;12.55;;;8.80;;
66421;SDS011;53228;51.380;0.098;2022-09-23T05:31:57;17.23;;;7.85;;
66421;SDS011;53228;51.380;0.098;2022-09-23T05:34:24;12.07;;;6.95;;
66421;SDS011;53228;51.380;0.098;2022-09-23T05:36:52;11.00;;;8.20;;
66421;SDS011;53228;51.380;0.098;2022-09-23T05:39:19;13.32;;;7.78;;
66421;SDS011;53228;51.380;0.098;2022-09-23T05:41:47;13.23;;;7.82;;
66421;SDS011;53228;51.380;0.098;2022-09-23T05:44:14;14.00;;;8.18;;
66421;SDS011;53228;51.380;0.098;2022-09-23T05:46:42;15.82;;;8.15;;
66421;SDS011;53228;51.380;0.098;2022-09-23T05:49:10;16.30;;;8.50;;
66421;SDS011;53228;51.380;0.098;2022-09-23T05:51:38;11.77;;;7.70;;
66421;SDS011;53228;51.380;0.098;2022-09-23T05:54:05;10.95;;;7.90;;
66421;SDS011;53228;51.380;0.098;2022-09-23T05:56:34;12.95;;;8.00;;
66421;SDS011;53228;51.380;0.098;2022-09-23T05:59:03;15.18;;;8.43;;
66421;SDS011;53228;51.380;0.098;2022-09-23T06:01:33;13.02;;;7.95;;
66421;SDS011;53228;51.380;0.098;2022-09-23T06:04:03;13.25;;;8.05;;
66421;SDS011;53228;51.380;0.098;2022-09-23T06:06:37;16.52;;;8.43;;
66421;SDS011;53228;51.380;0.098;2022-09-23T06:09:06;13.65;;;8.23;;
66421;SDS011;53228;51.380;0.098;2022-09-23T06:11:37;13.75;;;8.88;;
66421;SDS011;53228;51.380;0.098;2022-09-23T06:14:04;14.32;;;8.40;;
66421;SDS011;53228;51.380;0.098;2022-09-23T06:16:33;20.20;;;9.55;;
66421;SDS011;53228;51.380;0.098;2022-09-23T06:19:01;14.07;;;8.80;;
66421;SDS011;53228;51.380;0.098;2022-09-23T06:21:33;19.52;;;8.95;;
66421;SDS011;53228;51.380;0.098;2022-09-23T06:24:03;15.27;;;9.52;;
66421;SDS011;53228;51.380;0.098;2022-09-23T06:26:32;18.77;;;10.57;;
66421;SDS011;53228;51.380;0.098;2022-09-23T06:29:02;15.70;;;9.77;;
66421;SDS011;53228;51.380;0.098;2022-09-23T06:31:34;16.55;;;9.50;;
66421;SDS011;53228;51.380;0.098;2022-09-23T06:34:01;15.27;;;9.27;;
66421;SDS011;53228;51.380;0.098;2022-09-23T06:36:43;19.02;;;10.23;;
66421;SDS011;53228;51.380;0.098;2022-09-23T06:39:13;16.85;;;9.35;;
66421;SDS011;53228;51.380;0.098;2022-09-23T06:41:41;18.70;;;10.85;;
66421;SDS011;53228;51.380;0.098;2022-09-23T06:44:12;15.18;;;9.43;;
66421;SDS011;53228;51.380;0.098;2022-09-23T06:46:40;15.95;;;8.80;;
66421;SDS011;53228;51.380;0.098;2022-09-23T06:49:08;15.15;;;9.70;;
66421;SDS011;53228;51.380;0.098;2022-09-23T06:51:37;18.95;;;10.35;;
66421;SDS011;53228;51.380;0.098;2022-09-23T06:54:06;13.93;;;8.68;;
66421;SDS011;53228;51.380;0.098;2022-09-23T06:56:34;18.48;;;10.82;;
66421;SDS011;53228;51.380;0.098;2022-09-23T06:59:06;15.30;;;9.57;;
66421;SDS011;53228;51.380;0.098;2022-09-23T07:01:36;19.63;;;10.88;;
66421;SDS011;53228;51.380;0.098;2022-09-23T07:04:04;19.52;;;10.55;;
66421;SDS011;53228;51.380;0.098;2022-09-23T07:06:33;15.18;;;10.00;;
66421;SDS011;53228;51.380;0.098;2022-09-23T07:09:01;18.98;;;10.43;;
66421;SDS011;53228;51.380;0.098;2022-09-23T07:11:30;16.50;;;10.10;;
66421;SDS011;53228;51.380;0.098;2022-09-23T07:13:57;16.38;;;10.20;;
66421;SDS011;53228;51.380;0.098;2022-09-23T07:16:25;19.10;;;10.70;;
66421;SDS011;53228;51.380;0.098;2022-09-23T07:18:53;20.40;;;10.82;;
66421;SDS011;53228;51.380;0.098;2022-09-23T07:21:21;17.77;;;9.68;;
66421;SDS011;53228;51.380;0.098;2022-09-23T07:23:48;16.42;;;10.23;;
66421;SDS011;53228;51.380;0.098;2022-09-23T07:26:18;20.77;;;10.75;;
66421;SDS011;53228;51.380;0.098;2022-09-23T07:28:46;19.35;;;10.27;;
66421;SDS011;53228;51.380;0.098;2022-09-23T07:31:15;16.60;;;9.60;;
66421;SDS011;53228;51.380;0.098;2022-09-23T07:33:58;17.58;;;9.35;;
66421;SDS011;53228;51.380;0.098;2022-09-23T07:36:29;16.80;;;9.73;;
66421;SDS011;53228;51.380;0.098;2022-09-23T07:38:58;17.45;;;11.07;;
66421;SDS011;53228;51.380;0.098;2022-09-23T07:41:28;16.45;;;10.75;;
66421;SDS011;53228;51.380;0.098;2022-09-23T07:43:57;18.92;;;9.85;;
66421;SDS011;53228;51.380;0.098;2022-09-23T07:46:28;16.20;;;9.77;;
66421;SDS011;53228;51.380;0.098;2022-09-23T07:48:57;15.90;;;9.82;;
66421;SDS011;53228;51.380;0.098;2022-09-23T07:51:30;18.25;;;9.85;;
66421;SDS011;53228;51.380;0.098;2022-09-23T07:54:04;15.93;;;9.15;;
66421;SDS011;53228;51.380;0.098;2022-09-23T07:56:36;14.98;;;9.93;;
66421;SDS011;53228;51.380;0.098;2022-09-23T07:59:05;16.73;;;9.57;;
66421;SDS011;53228;51.380;0.098;2022-09-23T08:01:36;18.98;;;11.02;;
66421;SDS011;53228;51.380;0.098;2022-09-23T08:04:07;17.52;;;9.13;;
66421;SDS011;53228;51.380;0.098;2022-09-23T08:06:39;17.73;;;10.18;;
66421;SDS011;53228;51.380;0.098;2022-09-23T08:09:10;17.27;;;9.73;;
66421;SDS011;53228;51.380;0.098;2022-09-23T08:11:38;18.98;;;9.32;;
66421;SDS011;53228;51.380;0.098;2022-09-23T08:14:08;14.95;;;7.75;;
66421;SDS011;53228;51.380;0.098;2022-09-23T08:16:41;14.65;;;7.70;;
66421;SDS011;53228;51.380;0.098;2022-09-23T08:19:11;11.82;;;7.30;;
66421;SDS011;53228;51.380;0.098;2022-09-23T08:21:39;11.43;;;6.85;;
66421;SDS011;53228;51.380;0.098;2022-09-23T08:24:08;8.73;;;6.43;;
66421;SDS011;53228;51.380;0.098;2022-09-23T08:26:40;11.65;;;6.40;;
66421;SDS011;53228;51.380;0.098;2022-09-23T08:29:10;12.25;;;5.72;;
66421;SDS011;53228;51.380;0.098;2022-09-23T08:31:41;11.13;;;6.50;;
66421;SDS011;53228;51.380;0.098;2022-09-23T08:34:10;7.80;;;5.13;;
66421;SDS011;53228;51.380;0.098;2022-09-23T08:36:38;7.30;;;5.05;;
66421;SDS011;53228;51.380;0.098;2022-09-23T08:39:05;8.77;;;5.60;;
66421;SDS011;53228;51.380;0.098;2022-09-23T08:41:38;9.20;;;5.72;;
66421;SDS011;53228;51.380;0.098;2022-09-23T08:47:31;7.97;;;5.95;;
66421;SDS011;53228;51.380;0.098;2022-09-23T08:50:06;8.73;;;6.00;;
66421;SDS011;53228;51.380;0.098;2022-09-23T08:52:49;9.00;;;5.55;;
66421;SDS011;53228;51.380;0.098;2022-09-23T08:55:34;8.85;;;5.75;;
66421;SDS011;53228;51.380;0.098;2022-09-23T09:01:01;9.73;;;6.25;;
66421;SDS011;53228;51.380;0.098;2022-09-23T09:03:51;9.15;;;6.07;;
66421;SDS011;53228;51.380;0.098;2022-09-23T09:06:35;8.77;;;6.25;;
66421;SDS011;53228;51.380;0.098;2022-09-23T09:09:29;9.10;;;5.70;;
66421;SDS011;53228;51.380;0.098;2022-09-23T09:12:07;11.10;;;7.03;;
66421;SDS011;53228;51.380;0.098;2022-09-23T09:15:01;9.88;;;6.15;;
66421;SDS011;53228;51.380;0.098;2022-09-23T09:17:37;9.63;;;6.85;;
66421;SDS011;53228;51.380;0.098;2022-09-23T09:20:17;9.32;;;6.28;;
66421;SDS011;53228;51.380;0.098;2022-09-23T09:22:56;11.40;;;7.75;;
66421;SDS011;53228;51.380;0.098;2022-09-23T09:28:00;9.80;;;7.10;;
66421;SDS011;53228;51.380;0.098;2022-09-23T09:30:29;13.52;;;8.57;;
66421;SDS011;53228;51.380;0.098;2022-09-23T09:33:00;15.10;;;9.38;;
66421;SDS011;53228;51.380;0.098;2022-09-23T09:36:22;10.77;;;7.40;;
66421;SDS011;53228;51.380;0.098;2022-09-23T09:38:35;10.25;;;7.57;;
66421;SDS011;53228;51.380;0.098;2022-09-23T09:41:15;14.07;;;8.40;;
66421;SDS011;53228;51.380;0.098;2022-09-23T09:43:45;12.40;;;7.75;;
66421;SDS011;53228;51.380;0.098;2022-09-23T09:46:22;12.63;;;8.50;;
66421;SDS011;53228;51.380;0.098;2022-09-23T09:48:56;13.05;;;8.05;;
66421;SDS011;53228;51.380;0.098;2022-09-23T09:51:27;11.07;;;8.25;;
66421;SDS011;53228;51.380;0.098;2022-09-23T09:54:14;11.60;;;7.90;;
66421;SDS011;53228;51.380;0.098;2022-09-23T09:56:44;12.23;;;8.65;;
66421;SDS011;53228;51.380;0.098;2022-09-23T09:59:15;15.50;;;9.35;;
66421;SDS011;53228;51.380;0.098;2022-09-23T10:01:49;17.17;;;10.15;;
66421;SDS011;53228;51.380;0.098;2022-09-23T10:04:39;17.67;;;9.82;;
66421;SDS011;53228;51.380;0.098;2022-09-23T10:07:16;21.48;;;12.02;;
66421;SDS011;53228;51.380;0.098;2022-09-23T10:09:52;25.92;;;13.25;;
66421;SDS011;53228;51.380;0.098;2022-09-23T10:12:27;20.70;;;12.20;;
66421;SDS011;53228;51.380;0.098;2022-09-23T10:15:24;27.27;;;13.30;;
66421;SDS011;53228;51.380;0.098;2022-09-23T10:17:57;26.67;;;12.93;;
66421;SDS011;53228;51.380;0.098;2022-09-23T10:20:34;23.38;;;13.70;;
66421;SDS011;53228;51.380;0.098;2022-09-23T10:23:05;24.83;;;13.15;;
66421;SDS011;53228;51.380;0.098;2022-09-23T10:25:34;24.33;;;13.05;;
66421;SDS011;53228;51.380;0.098;2022-09-23T10:28:28;26.05;;;14.45;;
66421;SDS011;53228;51.380;0.098;2022-09-23T10:31:11;28.52;;;14.82;;
66421;SDS011;53228;51.380;0.098;2022-09-23T10:33:45;23.48;;;12.57;;
66421;SDS011;53228;51.380;0.098;2022-09-23T10:36:16;24.73;;;13.82;;
66421;SDS011;53228;51.380;0.098;2022-09-23T10:38:44;25.02;;;14.63;;
66421;SDS011;53228;51.380;0.098;2022-09-23T10:41:19;28.13;;;15.48;;
66421;SDS011;53228;51.380;0.098;2022-09-23T10:44:33;27.00;;;14.48;;
66421;SDS011;53228;51.380;0.098;2022-09-23T10:47:33;28.73;;;15.80;;
66421;SDS011;53228;51.380;0.098;2022-09-23T10:53:03;27.67;;;14.90;;
66421;SDS011;53228;51.380;0.098;2022-09-23T11:01:48;21.52;;;14.07;;
66421;SDS011;53228;51.380;0.098;2022-09-23T11:13:05;19.02;;;11.73;;
66421;SDS011;53228;51.380;0.098;2022-09-23T11:18:17;22.00;;;12.98;;
66421;SDS011;53228;51.380;0.098;2022-09-23T11:21:26;21.63;;;11.50;;
66421;SDS011;53228;51.380;0.098;2022-09-23T11:32:09;18.05;;;11.13;;
66421;SDS011;53228;51.380;0.098;2022-09-23T11:35:17;17.33;;;10.80;;
66421;SDS011;53228;51.380;0.098;2022-09-23T11:38:06;21.17;;;9.80;;
66421;SDS011;53228;51.380;0.098;2022-09-23T11:40:39;15.30;;;10.05;;
66421;SDS011;53228;51.380;0.098;2022-09-23T11:43:14;16.15;;;9.93;;
66421;SDS011;53228;51.380;0.098;2022-09-23T11:45:46;15.73;;;10.43;;
66421;SDS011;53228;51.380;0.098;2022-09-23T11:48:17;13.77;;;8.95;;
66421;SDS011;53228;51.380;0.098;2022-09-23T11:50:54;12.55;;;7.97;;
66421;SDS011;53228;51.380;0.098;2022-09-23T11:53:42;10.32;;;6.90;;
66421;SDS011;53228;51.380;0.098;2022-09-23T11:56:19;9.82;;;6.43;;
66421;SDS011;53228;51.380;0.098;2022-09-23T12:02:14;8.90;;;6.80;;
66421;SDS011;53228;51.380;0.098;2022-09-23T12:04:50;8.85;;;6.03;;
66421;SDS011;53228;51.380;0.098;2022-09-23T12:07:35;8.60;;;6.35;;
66421;SDS011;53228;51.380;0.098;2022-09-23T12:10:06;7.43;;;5.22;;
66421;SDS011;53228;51.380;0.098;2022-09-23T12:26:18;8.10;;;4.97;;
66421;SDS011;53228;51.380;0.098;2022-09-23T12:28:50;6.65;;;5.10;;
66421;SDS011;53228;51.380;0.098;2022-09-23T12:31:23;5.78;;;4.50;;
66421;SDS011;53228;51.380;0.098;2022-09-23T12:34:05;5.93;;;4.68;;
66421;SDS011;53228;51.380;0.098;2022-09-23T12:36:49;5.05;;;4.15;;
66421;SDS011;53228;51.380;0.098;2022-09-23T12:39:22;9.35;;;4.47;;
66421;SDS011;53228;51.380;0.098;2022-09-23T12:41:56;8.23;;;4.45;;
66421;SDS011;53228;51.380;0.098;2022-09-23T12:44:30;5.57;;;4.53;;
66421;SDS011;53228;51.380;0.098;2022-09-23T12:49:47;6.85;;;4.60;;
66421;SDS011;53228;51.380;0.098;2022-09-23T13:05:15;8.13;;;5.32;;
66421;SDS011;53228;51.380;0.098;2022-09-23T13:08:18;8.18;;;5.68;;
66421;SDS011;53228;51.380;0.098;2022-09-23T13:10:54;8.18;;;5.70;;
66421;SDS011;53228;51.380;0.098;2022-09-23T13:13:30;6.55;;;4.45;;
66421;SDS011;53228;51.380;0.098;2022-09-23T13:16:39;9.43;;;5.90;;
66421;SDS011;53228;51.380;0.098;2022-09-23T13:19:07;7.78;;;5.35;;
66421;SDS011;53228;51.380;0.098;2022-09-23T13:26:54;6.55;;;4.75;;
66421;SDS011;53228;51.380;0.098;2022-09-23T13:32:01;5.38;;;3.65;;
66421;SDS011;53228;51.380;0.098;2022-09-23T13:34:30;4.70;;;4.07;;
66421;SDS011;53228;51.380;0.098;2022-09-23T13:37:19;4.03;;;2.58;;
66421;SDS011;53228;51.380;0.098;2022-09-23T13:39:49;4.63;;;3.15;;
66421;SDS011;53228;51.380;0.098;2022-09-23T13:42:25;3.63;;;2.70;;
66421;SDS011;53228;51.380;0.098;2022-09-23T13:44:54;2.63;;;2.00;;
66421;SDS011;53228;51.380;0.098;2022-09-23T13:47:28;1.60;;;1.48;;
66421;SDS011;53228;51.380;0.098;2022-09-23T13:49:57;2.05;;;1.75;;
66421;SDS011;53228;51.380;0.098;2022-09-23T13:52:28;2.10;;;1.35;;
66421;SDS011;53228;51.380;0.098;2022-09-23T13:54:58;2.65;;;2.28;;
66421;SDS011;53228;51.380;0.098;2022-09-23T13:57:27;4.00;;;1.65;;
66421;SDS011;53228;51.380;0.098;2022-09-23T14:02:44;2.45;;;2.13;;
66421;SDS011;53228;51.380;0.098;2022-09-23T14:05:20;2.38;;;2.13;;
66421;SDS011;53228;51.380;0.098;2022-09-23T14:07:50;2.83;;;2.15;;
66421;SDS011;53228;51.380;0.098;2022-09-23T14:10:19;3.72;;;2.40;;
66421;SDS011;53228;51.380;0.098;2022-09-23T14:12:49;3.60;;;2.60;;
66421;SDS011;53228;51.380;0.098;2022-09-23T14:15:19;3.28;;;2.83;;
66421;SDS011;53228;51.380;0.098;2022-09-23T14:17:52;4.22;;;3.53;;
66421;SDS011;53228;51.380;0.098;2022-09-23T14:20:28;3.45;;;3.00;;
66421;SDS011;53228;51.380;0.098;2022-09-23T14:23:03;4.10;;;3.20;;
66421;SDS011;53228;51.380;0.098;2022-09-23T14:28:00;6.53;;;4.13;;
66421;SDS011;53228;51.380;0.098;2022-09-23T14:30:28;6.18;;;4.72;;
66421;SDS011;53228;51.380;0.098;2022-09-23T14:32:56;6.50;;;4.53;;
66421;SDS011;53228;51.380;0.098;2022-09-23T14:35:26;6.05;;;4.43;;
66421;SDS011;53228;51.380;0.098;2022-09-23T14:38:06;7.93;;;5.20;;
66421;SDS011;53228;51.380;0.098;2022-09-23T14:40:53;7.05;;;4.80;;
66421;SDS011;53228;51.380;0.098;2022-09-23T14:43:45;7.13;;;4.97;;
66421;SDS011;53228;51.380;0.098;2022-09-23T14:46:28;6.32;;;4.88;;
66421;SDS011;53228;51.380;0.098;2022-09-23T14:51:51;6.65;;;5.10;;
66421;SDS011;53228;51.380;0.098;2022-09-23T14:54:28;6.65;;;4.93;;
66421;SDS011;53228;51.380;0.098;2022-09-23T14:57:16;6.90;;;4.85;;
66421;SDS011;53228;51.380;0.098;2022-09-23T14:59:54;8.25;;;4.78;;
66421;SDS011;53228;51.380;0.098;2022-09-23T15:05:21;8.70;;;5.75;;
66421;SDS011;53228;51.380;0.098;2022-09-23T15:07:58;8.77;;;5.50;;
66421;SDS011;53228;51.380;0.098;2022-09-23T15:10:30;11.00;;;5.72;;
66421;SDS011;53228;51.380;0.098;2022-09-23T15:13:20;7.63;;;5.43;;
66421;SDS011;53228;51.380;0.098;2022-09-23T15:15:53;9.63;;;5.93;;
66421;SDS011;53228;51.380;0.098;2022-09-23T15:18:32;7.55;;;5.50;;
66421;SDS011;53228;51.380;0.098;2022-09-23T15:26:17;9.40;;;6.25;;
66421;SDS011;53228;51.380;0.098;2022-09-23T15:28:45;8.10;;;5.97;;
66421;SDS011;53228;51.380;0.098;2022-09-23T15:31:14;8.68;;;6.25;;
66421;SDS011;53228;51.380;0.098;2022-09-23T15:33:44;9.85;;;6.25;;
66421;SDS011;53228;51.380;0.098;2022-09-23T15:36:15;11.60;;;6.30;;
66421;SDS011;53228;51.380;0.098;2022-09-23T15:38:45;10.68;;;6.25;;
66421;SDS011;53228;51.380;0.098;2022-09-23T15:41:14;10.35;;;6.28;;
66421;SDS011;53228;51.380;0.098;2022-09-23T15:43:43;9.05;;;6.70;;
66421;SDS011;53228;51.380;0.098;2022-09-23T15:46:15;8.75;;;5.40;;
66421;SDS011;53228;51.380;0.098;2022-09-23T15:48:53;10.63;;;5.80;;
66421;SDS011;53228;51.380;0.098;2022-09-23T15:51:31;8.15;;;5.80;;
66421;SDS011;53228;51.380;0.098;2022-09-23T15:53:59;8.52;;;5.47;;
66421;SDS011;53228;51.380;0.098;2022-09-23T15:56:26;7.57;;;5.38;;
66421;SDS011;53228;51.380;0.098;2022-09-23T15:58:54;8.07;;;5.32;;
66421;SDS011;53228;51.380;0.098;2022-09-23T16:01:24;5.35;;;4.53;;
66421;SDS011;53228;51.380;0.098;2022-09-23T16:03:54;7.65;;;5.05;;
66421;SDS011;53228;51.380;0.098;2022-09-23T16:06:22;6.85;;;4.82;;
66421;SDS011;53228;51.380;0.098;2022-09-23T16:08:50;8.40;;;4.72;;
66421;SDS011;53228;51.380;0.098;2022-09-23T16:11:19;7.60;;;5.45;;
66421;SDS011;53228;51.380;0.098;2022-09-23T16:13:50;7.18;;;5.57;;
66421;SDS011;53228;51.380;0.098;2022-09-23T16:16:19;8.00;;;5.28;;
66421;SDS011;53228;51.380;0.098;2022-09-23T16:18:47;7.55;;;5.30;;
66421;SDS011;53228;51.380;0.098;2022-09-23T16:21:18;8.75;;;5.57;;
66421;SDS011;53228;51.380;0.098;2022-09-23T16:23:48;9.00;;;5.47;;
66421;SDS011;53228;51.380;0.098;2022-09-23T16:26:21;10.60;;;5.68;;
66421;SDS011;53228;51.380;0.098;2022-09-23T16:28:51;8.93;;;6.55;;
66421;SDS011;53228;51.380;0.098;2022-09-23T16:31:20;10.57;;;5.95;;
66421;SDS011;53228;51.380;0.098;2022-09-23T16:33:51;9.88;;;5.82;;
66421;SDS011;53228;51.380;0.098;2022-09-23T16:36:27;9.43;;;6.32;;
66421;SDS011;53228;51.380;0.098;2022-09-23T16:38:59;9.35;;;5.78;;
66421;SDS011;53228;51.380;0.098;2022-09-23T16:41:30;9.32;;;5.30;;
66421;SDS011;53228;51.380;0.098;2022-09-23T16:43:58;8.18;;;5.40;;
66421;SDS011;53228;51.380;0.098;2022-09-23T16:46:28;9.38;;;6.05;;
66421;SDS011;53228;51.380;0.098;2022-09-23T16:48:57;11.15;;;6.93;;
66421;SDS011;53228;51.380;0.098;2022-09-23T16:51:31;13.15;;;6.88;;
66421;SDS011;53228;51.380;0.098;2022-09-23T16:54:10;12.93;;;6.90;;
66421;SDS011;53228;51.380;0.098;2022-09-23T16:56:42;11.45;;;7.28;;
66421;SDS011;53228;51.380;0.098;2022-09-23T16:59:13;10.65;;;7.30;;
66421;SDS011;53228;51.380;0.098;2022-09-23T17:01:41;9.82;;;6.55;;
66421;SDS011;53228;51.380;0.098;2022-09-23T17:04:28;9.82;;;6.18;;
66421;SDS011;53228;51.380;0.098;2022-09-23T17:06:56;11.13;;;7.75;;
66421;SDS011;53228;51.380;0.098;2022-09-23T17:09:26;9.85;;;6.78;;
66421;SDS011;53228;51.380;0.098;2022-09-23T17:11:57;10.55;;;7.57;;
66421;SDS011;53228;51.380;0.098;2022-09-23T17:15:04;11.15;;;6.85;;
66421;SDS011;53228;51.380;0.098;2022-09-23T17:17:33;11.35;;;6.60;;
66421;SDS011;53228;51.380;0.098;2022-09-23T17:20:03;9.07;;;6.60;;